createdAt,value
2022-10-16T00:05:33.878Z,59.18
2022-10-16T00:15:40.886Z,59.46
2022-10-16T00:25:48.192Z,59.40
2022-10-16T00:35:55.344Z,59.68
2022-10-16T00:46:01.888Z,59.74
2022-10-16T00:56:08.796Z,59.91
2022-10-16T01:06:16.009Z,59.94
2022-10-16T01:16:23.113Z,60.30
2022-10-16T01:26:30.180Z,60.25
2022-10-16T01:36:37.035Z,60.33
2022-10-16T01:46:43.114Z,60.22
2022-10-16T01:56:49.667Z,60.37
2022-10-16T02:06:56.780Z,60.55
2022-10-16T02:17:03.384Z,60.77
2022-10-16T02:27:09.717Z,60.78
2022-10-16T02:37:16.857Z,60.84
2022-10-16T02:47:23.951Z,60.83
2022-10-16T02:57:30.359Z,61.10
2022-10-16T03:07:37.387Z,61.01
2022-10-16T03:17:44.441Z,61.01
2022-10-16T03:27:51.442Z,60.87
2022-10-16T03:37:58.700Z,61.08
2022-10-16T03:48:05.650Z,61.10
2022-10-16T03:58:12.418Z,60.92
2022-10-16T04:08:18.605Z,60.98
2022-10-16T04:18:25.075Z,60.88
2022-10-16T04:28:31.333Z,61.13
2022-10-16T04:38:38.269Z,61.39
2022-10-16T04:48:45.109Z,61.47
2022-10-16T04:58:52.360Z,61.14
2022-10-16T05:08:59.296Z,61.23
2022-10-16T05:19:31.746Z,61.30
2022-10-16T05:29:17.965Z,61.47
2022-10-16T05:39:24.938Z,61.30
2022-10-16T05:49:32.040Z,61.20
2022-10-16T05:59:38.801Z,61.36
2022-10-16T06:09:44.936Z,61.32
2022-10-16T06:19:52.204Z,61.80
2022-10-16T06:29:59.439Z,62.13
2022-10-16T06:40:05.470Z,62.90
2022-10-16T06:50:12.466Z,63.77
2022-10-16T07:00:19.036Z,64.42
2022-10-16T07:10:25.560Z,64.82
2022-10-16T07:20:32.237Z,64.50
2022-10-16T07:30:39.311Z,63.79
2022-10-16T07:40:46.131Z,64.21
2022-10-16T07:50:52.997Z,63.87
2022-10-16T08:00:59.945Z,63.54
2022-10-16T08:11:07.110Z,63.85
2022-10-16T08:21:18.476Z,63.35
2022-10-16T08:31:25.194Z,62.86
2022-10-16T08:41:32.293Z,63.41
2022-10-16T08:51:41.801Z,63.09
2022-10-16T09:01:51.252Z,63.02
2022-10-16T09:11:58.292Z,62.73
2022-10-16T09:22:05.367Z,62.82
2022-10-16T09:32:12.112Z,62.79
2022-10-16T09:42:19.190Z,62.66
2022-10-16T09:52:26.349Z,62.44
2022-10-16T10:02:32.611Z,62.38
2022-10-16T10:12:38.611Z,62.50
2022-10-16T10:22:45.229Z,62.38
2022-10-16T10:32:51.840Z,62.19
2022-10-16T10:42:57.876Z,62.22
2022-10-16T10:53:04.262Z,61.89
2022-10-16T11:03:10.359Z,61.82
2022-10-16T11:13:16.585Z,61.86
2022-10-16T11:23:23.134Z,61.73
2022-10-16T11:33:30.104Z,61.53
2022-10-16T11:43:36.839Z,61.71
2022-10-16T11:53:44.570Z,61.68
2022-10-16T12:03:51.656Z,61.57
2022-10-16T12:13:58.554Z,61.17
2022-10-16T12:24:05.424Z,61.28
2022-10-16T12:34:11.854Z,61.17
2022-10-16T12:44:18.314Z,61.08
2022-10-16T12:54:24.681Z,61.26
2022-10-16T13:04:30.983Z,61.21
2022-10-16T13:14:37.285Z,61.32
2022-10-16T13:24:43.797Z,61.51
2022-10-16T13:34:50.242Z,61.19
2022-10-16T13:44:56.689Z,61.44
2022-10-16T13:55:03.176Z,61.38
2022-10-16T14:05:09.796Z,61.39
2022-10-16T14:15:16.156Z,61.09
2022-10-16T14:25:22.110Z,61.20
2022-10-16T14:35:28.808Z,61.17
2022-10-16T14:45:35.853Z,61.30
2022-10-16T14:55:42.381Z,61.02
2022-10-16T15:05:49.123Z,61.62
2022-10-16T15:15:55.668Z,61.58
2022-10-16T15:26:01.930Z,61.55
2022-10-16T15:36:08.148Z,61.55
2022-10-16T15:46:15.056Z,60.77
2022-10-16T15:56:22.017Z,61.14
2022-10-16T16:06:30.427Z,63.41
2022-10-16T16:16:37.536Z,60.64
2022-10-16T16:26:44.439Z,58.34
2022-10-16T16:36:51.329Z,57.64
2022-10-16T16:46:58.231Z,56.07
2022-10-16T16:57:05.424Z,55.44
2022-10-16T17:07:12.215Z,54.24
2022-10-16T17:17:19.436Z,53.44
2022-10-16T17:27:26.109Z,52.96
2022-10-16T17:37:32.309Z,53.03
2022-10-16T17:47:39.290Z,52.67
2022-10-16T17:57:45.632Z,52.37
2022-10-16T18:07:52.509Z,52.06
2022-10-16T18:17:59.256Z,51.43
2022-10-16T18:28:05.888Z,52.63
2022-10-16T18:38:13.040Z,54.31
2022-10-16T18:48:19.889Z,54.84
2022-10-16T18:58:26.499Z,55.20
2022-10-16T19:08:33.236Z,55.47
2022-10-16T19:18:39.695Z,56.01
2022-10-16T19:28:46.680Z,56.00
2022-10-16T19:38:53.942Z,56.47
2022-10-16T19:49:00.377Z,56.59
2022-10-16T19:59:07.040Z,56.89
2022-10-16T20:09:13.690Z,56.95
2022-10-16T20:19:20.837Z,57.27
2022-10-16T20:29:28.341Z,57.04
2022-10-16T20:39:35.159Z,57.11
2022-10-16T20:49:41.594Z,56.80
2022-10-16T20:59:47.826Z,57.04
2022-10-16T21:09:53.704Z,57.42
2022-10-16T21:19:59.942Z,57.19
2022-10-16T21:30:06.138Z,57.51
2022-10-16T21:40:12.642Z,57.69
2022-10-16T21:50:18.795Z,57.98
2022-10-16T22:00:25.977Z,57.92
2022-10-16T22:10:32.825Z,58.05
2022-10-16T22:20:39.964Z,58.24
2022-10-16T22:30:46.714Z,58.09
2022-10-16T22:40:53.611Z,58.09
2022-10-16T22:51:00.385Z,58.32
2022-10-16T23:01:07.384Z,58.44
2022-10-16T23:11:14.210Z,57.70
2022-10-16T23:21:21.026Z,57.76
2022-10-16T23:31:28.201Z,57.76
2022-10-16T23:41:35.133Z,57.78
2022-10-16T23:51:41.636Z,57.79
